sensor_id;sensor_type;location;lat;lon;timestamp;pressure;altitude;pressure_sealevel;temperature;humidity
41234;BME280;26968;42.686;23.352;2023-04-19T00:01:57;94820.34;;;11.59;64.55
41234;BME280;26968;42.686;23.352;2023-04-19T00:04:23;94827.81;;;11.39;65.20
41234;BME280;26968;42.686;23.352;2023-04-19T00:06:49;94841.38;;;11.37;65.53
41234;BME280;26968;42.686;23.352;2023-04-19T00:09:16;94768.97;;;10.94;65.92
41234;BME280;26968;42.686;23.352;2023-04-19T00:11:41;94804.59;;;11.07;66.21
41234;BME280;26968;42.686;23.352;2023-04-19T00:14:06;94847.66;;;11.22;66.52
41234;BME280;26968;42.686;23.352;2023-04-19T00:16:32;94814.59;;;11.15;66.52
41234;BME280;26968;42.686;23.352;2023-04-19T00:18:57;94820.50;;;11.31;65.93
41234;BME280;26968;42.686;23.352;2023-04-19T00:21:23;94812.53;;;11.49;65.11
41234;BME280;26968;42.686;23.352;2023-04-19T00:23:48;94776.66;;;11.14;65.34
41234;BME280;26968;42.686;23.352;2023-04-19T00:26:14;94822.94;;;11.46;65.34
41234;BME280;26968;42.686;23.352;2023-04-19T00:28:42;94812.53;;;11.49;64.53
41234;BME280;26968;42.686;23.352;2023-04-19T00:31:07;94772.22;;;11.29;64.83
41234;BME280;26968;42.686;23.352;2023-04-19T00:33:33;94814.84;;;11.56;64.97
41234;BME280;26968;42.686;23.352;2023-04-19T00:35:58;94807.97;;;10.94;66.38
41234;BME280;26968;42.686;23.352;2023-04-19T00:38:24;94816.31;;;11.25;65.76
41234;BME280;26968;42.686;23.352;2023-04-19T00:40:49;94746.31;;;10.83;65.39
41234;BME280;26968;42.686;23.352;2023-04-19T00:43:18;94776.94;;;11.13;65.12
41234;BME280;26968;42.686;23.352;2023-04-19T00:45:44;94809.22;;;11.39;65.35
41234;BME280;26968;42.686;23.352;2023-04-19T00:48:11;94797.16;;;11.46;64.97
41234;BME280;26968;42.686;23.352;2023-04-19T00:50:37;94736.00;;;11.19;64.89
41234;BME280;26968;42.686;23.352;2023-04-19T00:53:03;94798.19;;;11.50;64.55
41234;BME280;26968;42.686;23.352;2023-04-19T00:55:28;94773.88;;;11.43;64.40
41234;BME280;26968;42.686;23.352;2023-04-19T00:57:54;94685.63;;;10.58;65.06
41234;BME280;26968;42.686;23.352;2023-04-19T01:00:19;94814.09;;;11.13;66.32
41234;BME280;26968;42.686;23.352;2023-04-19T01:02:45;94787.88;;;10.88;66.54
41234;BME280;26968;42.686;23.352;2023-04-19T01:05:12;94811.53;;;10.84;67.19
41234;BME280;26968;42.686;23.352;2023-04-19T01:07:37;94528.75;;;8.94;67.29
41234;BME280;26968;42.686;23.352;2023-04-19T01:10:03;94786.91;;;10.60;67.20
41234;BME280;26968;42.686;23.352;2023-04-19T01:12:28;94717.94;;;10.12;67.70
41234;BME280;26968;42.686;23.352;2023-04-19T01:14:54;94749.63;;;10.22;67.98
41234;BME280;26968;42.686;23.352;2023-04-19T01:17:19;94713.63;;;10.21;67.39
41234;BME280;26968;42.686;23.352;2023-04-19T01:19:45;94796.56;;;10.93;67.37
41234;BME280;26968;42.686;23.352;2023-04-19T01:22:20;94739.38;;;10.63;67.29
41234;BME280;26968;42.686;23.352;2023-04-19T01:24:49;94811.22;;;11.09;67.18
41234;BME280;26968;42.686;23.352;2023-04-19T01:27:15;94812.56;;;11.07;67.10
41234;BME280;26968;42.686;23.352;2023-04-19T01:29:42;94806.97;;;11.08;67.06
41234;BME280;26968;42.686;23.352;2023-04-19T01:32:07;94759.88;;;10.58;67.91
41234;BME280;26968;42.686;23.352;2023-04-19T01:34:33;94749.25;;;10.58;67.48
41234;BME280;26968;42.686;23.352;2023-04-19T01:36:58;94806.19;;;10.89;68.14
41234;BME280;26968;42.686;23.352;2023-04-19T01:39:24;94741.13;;;10.49;68.25
41234;BME280;26968;42.686;23.352;2023-04-19T01:41:50;94795.00;;;10.68;69.19
41234;BME280;26968;42.686;23.352;2023-04-19T01:44:16;94760.25;;;10.46;69.32
41234;BME280;26968;42.686;23.352;2023-04-19T01:46:41;94695.34;;;10.20;69.37
41234;BME280;26968;42.686;23.352;2023-04-19T01:49:07;94792.66;;;10.86;69.19
41234;BME280;26968;42.686;23.352;2023-04-19T01:51:33;94793.75;;;10.84;69.07
41234;BME280;26968;42.686;23.352;2023-04-19T01:53:58;94728.22;;;10.19;69.64
41234;BME280;26968;42.686;23.352;2023-04-19T01:56:23;94743.22;;;10.28;70.24
41234;BME280;26968;42.686;23.352;2023-04-19T01:58:50;94754.38;;;10.49;69.77
41234;BME280;26968;42.686;23.352;2023-04-19T02:01:15;94791.22;;;10.51;70.26
41234;BME280;26968;42.686;23.352;2023-04-19T02:03:41;94772.03;;;10.06;70.83
41234;BME280;26968;42.686;23.352;2023-04-19T02:06:10;94796.84;;;10.20;71.63
41234;BME280;26968;42.686;23.352;2023-04-19T02:08:37;94793.78;;;10.03;72.29
41234;BME280;26968;42.686;23.352;2023-04-19T02:11:09;94775.25;;;9.74;72.98
41234;BME280;26968;42.686;23.352;2023-04-19T02:13:35;94799.06;;;9.74;73.67
41234;BME280;26968;42.686;23.352;2023-04-19T02:16:01;94741.28;;;9.47;73.21
41234;BME280;26968;42.686;23.352;2023-04-19T02:18:27;94776.41;;;9.58;73.42
41234;BME280;26968;42.686;23.352;2023-04-19T02:20:57;94742.22;;;9.27;74.13
41234;BME280;26968;42.686;23.352;2023-04-19T02:23:22;94784.22;;;9.39;75.20
41234;BME280;26968;42.686;23.352;2023-04-19T02:25:48;94690.25;;;8.69;75.50
41234;BME280;26968;42.686;23.352;2023-04-19T02:28:13;94757.31;;;9.27;75.34
41234;BME280;26968;42.686;23.352;2023-04-19T02:30:39;94781.13;;;9.66;75.02
41234;BME280;26968;42.686;23.352;2023-04-19T02:33:04;94664.81;;;8.73;74.76
41234;BME280;26968;42.686;23.352;2023-04-19T02:35:30;94698.22;;;9.03;75.01
41234;BME280;26968;42.686;23.352;2023-04-19T02:37:55;94773.34;;;9.46;74.91
41234;BME280;26968;42.686;23.352;2023-04-19T02:40:20;94769.78;;;9.60;74.34
41234;BME280;26968;42.686;23.352;2023-04-19T02:42:47;94744.78;;;9.43;74.24
41234;BME280;26968;42.686;23.352;2023-04-19T02:45:12;94718.38;;;9.33;74.20
41234;BME280;26968;42.686;23.352;2023-04-19T02:47:38;94753.59;;;9.67;73.72
41234;BME280;26968;42.686;23.352;2023-04-19T02:50:04;94790.69;;;9.96;73.10
41234;BME280;26968;42.686;23.352;2023-04-19T02:52:30;94722.03;;;9.71;72.65
41234;BME280;26968;42.686;23.352;2023-04-19T02:54:55;94764.25;;;9.57;73.35
41234;BME280;26968;42.686;23.352;2023-04-19T02:57:21;94671.75;;;9.08;72.84
41234;BME280;26968;42.686;23.352;2023-04-19T02:59:46;94783.53;;;9.96;72.83
41234;BME280;26968;42.686;23.352;2023-04-19T03:02:12;94761.75;;;9.71;72.56
41234;BME280;26968;42.686;23.352;2023-04-19T03:04:37;94768.16;;;9.64;73.25
41234;BME280;26968;42.686;23.352;2023-04-19T03:07:03;94784.78;;;9.36;74.93
41234;BME280;26968;42.686;23.352;2023-04-19T03:09:28;94766.69;;;9.48;74.33
41234;BME280;26968;42.686;23.352;2023-04-19T03:11:53;94773.03;;;9.52;73.59
41234;BME280;26968;42.686;23.352;2023-04-19T03:14:19;94784.16;;;9.49;74.20
41234;BME280;26968;42.686;23.352;2023-04-19T03:16:44;94759.09;;;8.93;75.39
41234;BME280;26968;42.686;23.352;2023-04-19T03:19:10;94747.94;;;9.01;74.93
41234;BME280;26968;42.686;23.352;2023-04-19T03:21:35;94722.06;;;8.93;74.87
41234;BME280;26968;42.686;23.352;2023-04-19T03:24:01;94736.38;;;8.92;74.92
41234;BME280;26968;42.686;23.352;2023-04-19T03:26:26;94743.50;;;8.96;75.44
41234;BME280;26968;42.686;23.352;2023-04-19T03:28:52;94769.91;;;9.01;75.73
41234;BME280;26968;42.686;23.352;2023-04-19T03:31:17;94717.97;;;8.71;75.59
41234;BME280;26968;42.686;23.352;2023-04-19T03:33:43;94767.78;;;9.03;75.68
41234;BME280;26968;42.686;23.352;2023-04-19T03:36:08;94775.75;;;8.98;75.81
41234;BME280;26968;42.686;23.352;2023-04-19T03:38:34;94735.38;;;8.77;75.21
41234;BME280;26968;42.686;23.352;2023-04-19T03:40:59;94755.16;;;8.85;75.58
41234;BME280;26968;42.686;23.352;2023-04-19T03:43:25;94764.06;;;9.04;75.67
41234;BME280;26968;42.686;23.352;2023-04-19T03:45:50;94760.09;;;9.02;75.23
41234;BME280;26968;42.686;23.352;2023-04-19T03:48:16;94681.09;;;8.46;75.49
41234;BME280;26968;42.686;23.352;2023-04-19T03:50:41;94741.94;;;8.85;75.24
41234;BME280;26968;42.686;23.352;2023-04-19T03:53:06;94692.53;;;8.21;76.50
41234;BME280;26968;42.686;23.352;2023-04-19T03:55:32;94702.84;;;8.23;76.36
41234;BME280;26968;42.686;23.352;2023-04-19T03:57:58;94768.97;;;8.77;76.98
41234;BME280;26968;42.686;23.352;2023-04-19T04:00:23;94730.38;;;8.71;76.02
41234;BME280;26968;42.686;23.352;2023-04-19T04:02:49;94788.06;;;9.23;75.93
41234;BME280;26968;42.686;23.352;2023-04-19T04:05:14;94774.47;;;9.35;75.05
41234;BME280;26968;42.686;23.352;2023-04-19T04:07:40;94688.66;;;8.68;74.99
41234;BME280;26968;42.686;23.352;2023-04-19T04:10:07;94648.38;;;8.37;75.11
41234;BME280;26968;42.686;23.352;2023-04-19T04:12:32;94783.53;;;9.23;75.42
41234;BME280;26968;42.686;23.352;2023-04-19T04:14:59;94773.53;;;9.15;74.67
41234;BME280;26968;42.686;23.352;2023-04-19T04:17:25;94757.81;;;8.85;75.28
41234;BME280;26968;42.686;23.352;2023-04-19T04:19:50;94707.72;;;8.55;75.07
41234;BME280;26968;42.686;23.352;2023-04-19T04:22:16;94743.13;;;8.69;75.81
41234;BME280;26968;42.686;23.352;2023-04-19T04:24:42;94798.72;;;9.08;75.59
41234;BME280;26968;42.686;23.352;2023-04-19T04:27:08;94800.53;;;9.12;75.24
41234;BME280;26968;42.686;23.352;2023-04-19T04:29:37;94725.72;;;8.47;75.71
41234;BME280;26968;42.686;23.352;2023-04-19T04:32:04;94698.31;;;8.28;75.76
41234;BME280;26968;42.686;23.352;2023-04-19T04:34:32;94804.09;;;8.87;76.27
41234;BME280;26968;42.686;23.352;2023-04-19T04:36:58;94695.50;;;8.04;76.29
41234;BME280;26968;42.686;23.352;2023-04-19T04:39:23;94799.75;;;8.52;77.83
41234;BME280;26968;42.686;23.352;2023-04-19T04:41:49;94720.34;;;7.93;77.78
41234;BME280;26968;42.686;23.352;2023-04-19T04:44:16;94803.44;;;8.51;78.09
41234;BME280;26968;42.686;23.352;2023-04-19T04:46:41;94762.25;;;8.30;78.21
41234;BME280;26968;42.686;23.352;2023-04-19T04:49:08;94747.22;;;8.31;77.51
41234;BME280;26968;42.686;23.352;2023-04-19T04:51:33;94802.66;;;8.46;77.52
41234;BME280;26968;42.686;23.352;2023-04-19T04:53:59;94768.34;;;8.36;77.76
41234;BME280;26968;42.686;23.352;2023-04-19T04:56:24;94768.88;;;8.33;77.73
41234;BME280;26968;42.686;23.352;2023-04-19T04:58:50;94711.13;;;7.91;77.99
41234;BME280;26968;42.686;23.352;2023-04-19T05:01:16;94821.13;;;8.51;78.26
41234;BME280;26968;42.686;23.352;2023-04-19T05:03:43;94763.09;;;8.16;78.66
41234;BME280;26968;42.686;23.352;2023-04-19T05:06:09;94660.47;;;7.68;78.25
41234;BME280;26968;42.686;23.352;2023-04-19T05:08:34;94799.41;;;8.64;77.62
41234;BME280;26968;42.686;23.352;2023-04-19T05:11:00;94504.50;;;6.60;77.47
41234;BME280;26968;42.686;23.352;2023-04-19T05:13:27;94699.50;;;7.87;78.01
41234;BME280;26968;42.686;23.352;2023-04-19T05:15:52;94740.09;;;8.16;77.88
41234;BME280;26968;42.686;23.352;2023-04-19T05:18:18;94820.03;;;8.67;77.80
41234;BME280;26968;42.686;23.352;2023-04-19T05:20:43;94814.72;;;8.72;77.92
41234;BME280;26968;42.686;23.352;2023-04-19T05:23:10;94818.59;;;8.95;77.83
41234;BME280;26968;42.686;23.352;2023-04-19T05:25:36;94822.53;;;9.03;77.04
41234;BME280;26968;42.686;23.352;2023-04-19T05:28:02;94683.81;;;8.31;76.90
41234;BME280;26968;42.686;23.352;2023-04-19T05:30:28;94763.91;;;8.85;75.94
41234;BME280;26968;42.686;23.352;2023-04-19T05:32:55;94762.91;;;8.71;76.67
41234;BME280;26968;42.686;23.352;2023-04-19T05:35:20;94552.66;;;7.31;76.26
41234;BME280;26968;42.686;23.352;2023-04-19T05:37:46;94470.53;;;6.69;76.44
41234;BME280;26968;42.686;23.352;2023-04-19T05:40:18;94525.31;;;6.82;77.04
41234;BME280;26968;42.686;23.352;2023-04-19T05:42:43;94805.22;;;8.71;77.33
41234;BME280;26968;42.686;23.352;2023-04-19T05:45:09;94756.97;;;8.35;77.82
41234;BME280;26968;42.686;23.352;2023-04-19T05:47:35;94790.41;;;8.75;77.24
41234;BME280;26968;42.686;23.352;2023-04-19T05:50:00;94825.16;;;9.08;77.26
41234;BME280;26968;42.686;23.352;2023-04-19T05:52:25;94667.84;;;7.82;77.06
41234;BME280;26968;42.686;23.352;2023-04-19T05:54:51;94723.69;;;8.19;77.87
41234;BME280;26968;42.686;23.352;2023-04-19T05:57:16;94679.94;;;7.98;77.62
41234;BME280;26968;42.686;23.352;2023-04-19T05:59:42;94823.38;;;8.88;77.87
41234;BME280;26968;42.686;23.352;2023-04-19T06:02:08;94805.97;;;8.82;77.45
41234;BME280;26968;42.686;23.352;2023-04-19T06:04:33;94791.13;;;8.91;77.25
41234;BME280;26968;42.686;23.352;2023-04-19T06:06:59;94786.06;;;9.00;75.91
41234;BME280;26968;42.686;23.352;2023-04-19T06:09:24;94829.50;;;9.38;76.20
41234;BME280;26968;42.686;23.352;2023-04-19T06:11:50;94802.13;;;9.08;75.38
41234;BME280;26968;42.686;23.352;2023-04-19T06:14:15;94812.19;;;9.11;76.19
41234;BME280;26968;42.686;23.352;2023-04-19T06:16:41;94781.59;;;8.90;75.69
41234;BME280;26968;42.686;23.352;2023-04-19T06:19:06;94823.00;;;9.15;75.97
41234;BME280;26968;42.686;23.352;2023-04-19T06:21:35;94818.41;;;9.36;75.79
41234;BME280;26968;42.686;23.352;2023-04-19T06:24:01;94761.66;;;9.13;75.29
41234;BME280;26968;42.686;23.352;2023-04-19T06:26:27;94796.16;;;9.32;74.88
41234;BME280;26968;42.686;23.352;2023-04-19T06:28:53;94780.91;;;9.18;75.29
41234;BME280;26968;42.686;23.352;2023-04-19T06:31:18;94828.41;;;9.39;75.27
41234;BME280;26968;42.686;23.352;2023-04-19T06:33:44;94772.41;;;9.26;75.40
41234;BME280;26968;42.686;23.352;2023-04-19T06:36:11;94822.91;;;9.69;74.89
41234;BME280;26968;42.686;23.352;2023-04-19T06:38:36;94708.00;;;9.07;74.62
41234;BME280;26968;42.686;23.352;2023-04-19T06:41:03;94818.50;;;9.93;73.62
41234;BME280;26968;42.686;23.352;2023-04-19T06:43:28;94752.72;;;9.43;73.56
41234;BME280;26968;42.686;23.352;2023-04-19T06:46:01;94716.84;;;9.26;73.41
41234;BME280;26968;42.686;23.352;2023-04-19T06:48:27;94818.09;;;10.10;73.20
41234;BME280;26968;42.686;23.352;2023-04-19T06:50:53;94822.13;;;10.02;72.74
41234;BME280;26968;42.686;23.352;2023-04-19T06:53:19;94826.28;;;10.19;72.47
41234;BME280;26968;42.686;23.352;2023-04-19T06:55:45;94741.22;;;9.86;71.62
41234;BME280;26968;42.686;23.352;2023-04-19T06:58:10;94787.47;;;9.99;71.68
41234;BME280;26968;42.686;23.352;2023-04-19T07:00:36;94804.22;;;10.23;71.09
41234;BME280;26968;42.686;23.352;2023-04-19T07:03:01;94563.94;;;8.61;71.03
41234;BME280;26968;42.686;23.352;2023-04-19T07:05:28;94755.91;;;9.74;71.65
41234;BME280;26968;42.686;23.352;2023-04-19T07:07:54;94838.50;;;10.43;71.48
41234;BME280;26968;42.686;23.352;2023-04-19T07:10:19;94774.84;;;9.91;71.29
41234;BME280;26968;42.686;23.352;2023-04-19T07:12:45;94810.69;;;10.07;71.63
41234;BME280;26968;42.686;23.352;2023-04-19T07:15:10;94821.53;;;10.11;71.89
41234;BME280;26968;42.686;23.352;2023-04-19T07:17:36;94828.63;;;10.15;72.06
41234;BME280;26968;42.686;23.352;2023-04-19T07:20:02;94842.72;;;10.44;71.67
41234;BME280;26968;42.686;23.352;2023-04-19T07:22:29;94794.03;;;10.06;71.38
41234;BME280;26968;42.686;23.352;2023-04-19T07:24:55;94779.47;;;10.04;71.09
41234;BME280;26968;42.686;23.352;2023-04-19T07:27:20;94763.94;;;9.92;71.26
41234;BME280;26968;42.686;23.352;2023-04-19T07:29:46;94777.63;;;10.04;71.09
41234;BME280;26968;42.686;23.352;2023-04-19T07:32:11;94847.69;;;10.51;71.04
41234;BME280;26968;42.686;23.352;2023-04-19T07:34:38;94780.16;;;10.15;70.56
41234;BME280;26968;42.686;23.352;2023-04-19T07:37:05;94797.06;;;10.24;70.49
41234;BME280;26968;42.686;23.352;2023-04-19T07:39:31;94848.25;;;10.48;70.72
41234;BME280;26968;42.686;23.352;2023-04-19T07:41:57;94824.13;;;10.21;70.81
41234;BME280;26968;42.686;23.352;2023-04-19T07:44:22;94844.66;;;10.63;70.41
41234;BME280;26968;42.686;23.352;2023-04-19T07:46:48;94785.28;;;10.06;70.48
41234;BME280;26968;42.686;23.352;2023-04-19T07:49:14;94832.97;;;10.06;71.58
41234;BME280;26968;42.686;23.352;2023-04-19T07:51:42;94811.44;;;9.84;71.90
41234;BME280;26968;42.686;23.352;2023-04-19T07:54:07;94714.00;;;9.52;71.12
41234;BME280;26968;42.686;23.352;2023-04-19T07:56:33;94776.03;;;10.03;71.15
41234;BME280;26968;42.686;23.352;2023-04-19T07:58:59;94694.06;;;9.59;70.77
41234;BME280;26968;42.686;23.352;2023-04-19T08:01:24;94828.22;;;10.37;70.90
41234;BME280;26968;42.686;23.352;2023-04-19T08:03:50;94788.50;;;10.32;69.76
41234;BME280;26968;42.686;23.352;2023-04-19T08:06:16;94811.38;;;10.52;69.52
41234;BME280;26968;42.686;23.352;2023-04-19T08:08:42;94823.44;;;10.63;69.13
41234;BME280;26968;42.686;23.352;2023-04-19T08:11:07;94828.97;;;10.66;68.76
41234;BME280;26968;42.686;23.352;2023-04-19T08:13:34;94856.06;;;10.63;69.60
41234;BME280;26968;42.686;23.352;2023-04-19T08:16:00;94856.50;;;10.70;69.25
41234;BME280;26968;42.686;23.352;2023-04-19T08:18:25;94753.81;;;9.99;69.50
41234;BME280;26968;42.686;23.352;2023-04-19T08:20:51;94809.09;;;10.40;69.84
41234;BME280;26968;42.686;23.352;2023-04-19T08:23:16;94849.63;;;10.69;69.07
41234;BME280;26968;42.686;23.352;2023-04-19T08:25:42;94823.41;;;10.68;69.12
41234;BME280;26968;42.686;23.352;2023-04-19T08:28:07;94846.03;;;10.60;69.06
41234;BME280;26968;42.686;23.352;2023-04-19T08:30:33;94809.34;;;10.43;69.17
41234;BME280;26968;42.686;23.352;2023-04-19T08:32:58;94849.97;;;10.87;68.83
41234;BME280;26968;42.686;23.352;2023-04-19T08:35:25;94736.78;;;10.34;68.79
41234;BME280;26968;42.686;23.352;2023-04-19T08:37:52;94817.56;;;11.13;68.19
41234;BME280;26968;42.686;23.352;2023-04-19T08:40:18;94785.19;;;11.11;67.43
41234;BME280;26968;42.686;23.352;2023-04-19T08:42:43;94800.69;;;11.23;66.20
41234;BME280;26968;42.686;23.352;2023-04-19T08:45:09;94810.88;;;11.16;66.57
41234;BME280;26968;42.686;23.352;2023-04-19T08:47:38;94820.91;;;11.38;66.76
41234;BME280;26968;42.686;23.352;2023-04-19T08:50:06;94807.09;;;11.41;65.29
41234;BME280;26968;42.686;23.352;2023-04-19T08:52:36;94791.25;;;11.36;65.28
41234;BME280;26968;42.686;23.352;2023-04-19T08:55:04;94833.84;;;11.44;65.41
41234;BME280;26968;42.686;23.352;2023-04-19T08:57:34;94830.50;;;11.57;65.56
41234;BME280;26968;42.686;23.352;2023-04-19T09:00:03;94739.66;;;11.04;64.97
41234;BME280;26968;42.686;23.352;2023-04-19T09:02:46;94819.59;;;11.78;64.86
41234;BME280;26968;42.686;23.352;2023-04-19T09:05:13;94828.34;;;11.78;64.61
41234;BME280;26968;42.686;23.352;2023-04-19T09:07:39;94812.97;;;11.56;64.87
41234;BME280;26968;42.686;23.352;2023-04-19T09:10:08;94814.56;;;11.76;64.75
41234;BME280;26968;42.686;23.352;2023-04-19T09:12:35;94708.78;;;11.08;64.74
41234;BME280;26968;42.686;23.352;2023-04-19T09:15:02;94825.25;;;11.90;64.02
41234;BME280;26968;42.686;23.352;2023-04-19T09:17:32;94798.94;;;11.70;64.34
41234;BME280;26968;42.686;23.352;2023-04-19T09:19:58;94647.44;;;10.96;63.74
41234;BME280;26968;42.686;23.352;2023-04-19T09:22:24;94807.28;;;12.14;63.75
41234;BME280;26968;42.686;23.352;2023-04-19T09:24:50;94810.38;;;11.89;64.01
41234;BME280;26968;42.686;23.352;2023-04-19T09:27:25;94691.00;;;11.60;63.02
41234;BME280;26968;42.686;23.352;2023-04-19T09:29:52;94803.13;;;12.27;61.88
41234;BME280;26968;42.686;23.352;2023-04-19T09:32:18;94819.28;;;12.44;61.12
41234;BME280;26968;42.686;23.352;2023-04-19T09:34:54;94803.63;;;12.43;61.35
41234;BME280;26968;42.686;23.352;2023-04-19T09:37:21;94602.88;;;10.93;61.27
41234;BME280;26968;42.686;23.352;2023-04-19T09:39:46;94653.72;;;11.51;60.42
41234;BME280;26968;42.686;23.352;2023-04-19T09:42:12;94557.81;;;11.07;60.40
41234;BME280;26968;42.686;23.352;2023-04-19T09:44:38;94782.84;;;12.86;59.52
41234;BME280;26968;42.686;23.352;2023-04-19T09:47:21;94694.97;;;12.09;59.89
41234;BME280;26968;42.686;23.352;2023-04-19T09:49:47;94572.09;;;11.57;59.93
41234;BME280;26968;42.686;23.352;2023-04-19T09:52:31;94737.63;;;12.72;58.42
41234;BME280;26968;42.686;23.352;2023-04-19T09:54:59;94765.09;;;13.80;57.08
41234;BME280;26968;42.686;23.352;2023-04-19T09:57:25;94714.38;;;13.94;54.28
41234;BME280;26968;42.686;23.352;2023-04-19T09:59:52;94634.25;;;12.79;55.02
41234;BME280;26968;42.686;23.352;2023-04-19T10:02:19;94554.22;;;12.75;54.95
41234;BME280;26968;42.686;23.352;2023-04-19T10:04:45;94770.25;;;15.09;52.76
41234;BME280;26968;42.686;23.352;2023-04-19T10:07:11;94614.28;;;14.36;52.07
41234;BME280;26968;42.686;23.352;2023-04-19T10:09:39;94495.72;;;14.68;49.54
41234;BME280;26968;42.686;23.352;2023-04-19T10:12:06;94745.19;;;16.43;47.86
41234;BME280;26968;42.686;23.352;2023-04-19T10:14:34;94754.25;;;16.68;47.87
41234;BME280;26968;42.686;23.352;2023-04-19T10:17:01;94777.81;;;16.28;47.92
41234;BME280;26968;42.686;23.352;2023-04-19T10:19:27;94778.88;;;16.44;48.10
41234;BME280;26968;42.686;23.352;2023-04-19T10:21:54;94731.00;;;15.35;49.17
41234;BME280;26968;42.686;23.352;2023-04-19T10:24:22;94775.19;;;16.02;49.80
41234;BME280;26968;42.686;23.352;2023-04-19T10:27:08;94768.66;;;16.37;49.62
41234;BME280;26968;42.686;23.352;2023-04-19T10:30:00;94760.03;;;16.78;47.34
41234;BME280;26968;42.686;23.352;2023-04-19T10:32:41;94745.81;;;17.16;46.28
41234;BME280;26968;42.686;23.352;2023-04-19T10:37:33;94761.44;;;17.14;45.73
41234;BME280;26968;42.686;23.352;2023-04-19T10:39:59;94750.50;;;16.98;45.67
41234;BME280;26968;42.686;23.352;2023-04-19T10:45:31;94741.44;;;17.32;44.13
41234;BME280;26968;42.686;23.352;2023-04-19T10:47:57;94757.09;;;17.01;44.54
41234;BME280;26968;42.686;23.352;2023-04-19T10:50:22;94743.84;;;17.25;44.24
41234;BME280;26968;42.686;23.352;2023-04-19T10:52:48;94719.34;;;17.35;43.65
41234;BME280;26968;42.686;23.352;2023-04-19T10:55:17;94747.06;;;17.18;44.27
41234;BME280;26968;42.686;23.352;2023-04-19T10:58:06;94732.16;;;17.50;44.18
41234;BME280;26968;42.686;23.352;2023-04-19T11:00:32;94726.44;;;17.10;45.33
41234;BME280;26968;42.686;23.352;2023-04-19T11:06:20;94727.13;;;17.28;43.59
41234;BME280;26968;42.686;23.352;2023-04-19T11:08:51;94716.22;;;17.54;43.41
41234;BME280;26968;42.686;23.352;2023-04-19T11:11:18;94672.31;;;16.75;44.84
41234;BME280;26968;42.686;23.352;2023-04-19T11:13:46;94727.66;;;17.42;44.52
41234;BME280;26968;42.686;23.352;2023-04-19T11:16:12;94692.94;;;17.66;42.44
41234;BME280;26968;42.686;23.352;2023-04-19T11:18:37;94689.72;;;17.11;43.86
41234;BME280;26968;42.686;23.352;2023-04-19T11:21:03;94659.81;;;17.29;42.70
41234;BME280;26968;42.686;23.352;2023-04-19T11:23:28;94673.94;;;17.39;42.71
41234;BME280;26968;42.686;23.352;2023-04-19T11:25:54;94652.66;;;17.54;42.02
41234;BME280;26968;42.686;23.352;2023-04-19T11:28:19;94705.22;;;17.88;42.36
41234;BME280;26968;42.686;23.352;2023-04-19T11:30:46;94703.09;;;17.94;42.55
41234;BME280;26968;42.686;23.352;2023-04-19T11:33:12;94722.72;;;18.64;41.27
41234;BME280;26968;42.686;23.352;2023-04-19T11:35:37;94671.66;;;18.27;40.23
41234;BME280;26968;42.686;23.352;2023-04-19T11:38:04;94676.13;;;18.47;39.79
41234;BME280;26968;42.686;23.352;2023-04-19T11:40:30;94693.41;;;18.71;40.14
41234;BME280;26968;42.686;23.352;2023-04-19T11:43:03;94695.03;;;18.39;40.22
41234;BME280;26968;42.686;23.352;2023-04-19T11:45:34;94680.56;;;17.32;40.62
41234;BME280;26968;42.686;23.352;2023-04-19T11:48:00;94706.75;;;18.22;41.08
41234;BME280;26968;42.686;23.352;2023-04-19T11:50:30;94722.28;;;18.17;39.13
41234;BME280;26968;42.686;23.352;2023-04-19T11:52:57;94686.81;;;18.68;39.28
41234;BME280;26968;42.686;23.352;2023-04-19T11:55:23;94662.84;;;18.63;39.41
41234;BME280;26968;42.686;23.352;2023-04-19T11:57:48;94697.66;;;18.96;37.85
41234;BME280;26968;42.686;23.352;2023-04-19T12:00:14;94679.97;;;18.59;39.59
41234;BME280;26968;42.686;23.352;2023-04-19T12:02:44;94690.88;;;19.26;37.56
41234;BME280;26968;42.686;23.352;2023-04-19T12:05:14;94691.88;;;19.34;38.60
41234;BME280;26968;42.686;23.352;2023-04-19T12:07:59;94690.59;;;19.04;37.90
41234;BME280;26968;42.686;23.352;2023-04-19T12:10:28;94683.28;;;19.28;37.79
41234;BME280;26968;42.686;23.352;2023-04-19T12:12:57;94684.19;;;19.20;37.29
41234;BME280;26968;42.686;23.352;2023-04-19T12:15:23;94561.69;;;18.43;40.13
41234;BME280;26968;42.686;23.352;2023-04-19T12:17:59;94647.09;;;19.66;39.71
41234;BME280;26968;42.686;23.352;2023-04-19T12:20:34;94679.91;;;19.72;40.49
41234;BME280;26968;42.686;23.352;2023-04-19T12:23:00;94630.84;;;19.62;40.75
41234;BME280;26968;42.686;23.352;2023-04-19T12:25:30;94536.53;;;19.27;40.20
41234;BME280;26968;42.686;23.352;2023-04-19T12:27:56;94682.53;;;20.27;39.13
41234;BME280;26968;42.686;23.352;2023-04-19T12:30:22;94683.34;;;20.75;38.47
41234;BME280;26968;42.686;23.352;2023-04-19T12:32:48;94615.34;;;19.87;36.98
41234;BME280;26968;42.686;23.352;2023-04-19T12:35:15;94679.84;;;19.84;37.91
41234;BME280;26968;42.686;23.352;2023-04-19T12:37:43;94591.47;;;19.70;37.83
41234;BME280;26968;42.686;23.352;2023-04-19T12:40:09;94621.03;;;19.42;39.21
41234;BME280;26968;42.686;23.352;2023-04-19T12:42:34;94591.00;;;18.72;39.43
41234;BME280;26968;42.686;23.352;2023-04-19T12:45:00;94657.00;;;18.98;40.55
41234;BME280;26968;42.686;23.352;2023-04-19T12:47:25;94570.75;;;17.90;41.63
41234;BME280;26968;42.686;23.352;2023-04-19T12:49:50;94614.50;;;18.15;41.81
41234;BME280;26968;42.686;23.352;2023-04-19T12:52:19;94669.88;;;18.56;41.80
41234;BME280;26968;42.686;23.352;2023-04-19T12:54:47;94671.53;;;18.48;41.90
41234;BME280;26968;42.686;23.352;2023-04-19T12:57:13;94659.59;;;18.45;42.08
41234;BME280;26968;42.686;23.352;2023-04-19T12:59:38;94609.84;;;17.79;42.35
41234;BME280;26968;42.686;23.352;2023-04-19T13:02:04;94550.66;;;16.55;44.94